createdAt,value
2019-01-17T00:00:31.464Z,77.70
2019-01-17T00:05:07.242Z,77.50
2019-01-17T00:09:36.491Z,77.60
2019-01-17T00:14:06.007Z,77.90
2019-01-17T00:18:29.921Z,78.30
2019-01-17T00:23:05.729Z,78.20
2019-01-17T00:27:26.422Z,78.70
2019-01-17T00:31:57.734Z,78.70
2019-01-17T00:36:19.776Z,78.90
2019-01-17T00:40:57.847Z,79.00
2019-01-17T00:45:23.243Z,79.10
2019-01-17T00:49:49.975Z,80.00
2019-01-17T00:54:09.737Z,79.80
2019-01-17T00:58:33.195Z,79.80
2019-01-17T01:03:12.142Z,80.30
2019-01-17T01:07:27.620Z,80.10
2019-01-17T01:11:45.968Z,80.00
2019-01-17T01:16:15.632Z,79.90
2019-01-17T01:20:35.187Z,80.10
2019-01-17T01:24:58.675Z,80.20
2019-01-17T01:29:22.139Z,80.50
2019-01-17T01:33:40.298Z,81.00
2019-01-17T01:38:04.075Z,81.70
2019-01-17T01:42:26.203Z,81.70
2019-01-17T01:46:49.083Z,81.40
2019-01-17T01:51:11.155Z,81.60
2019-01-17T01:55:15.691Z,81.80
2019-01-17T01:59:20.233Z,81.90
2019-01-17T02:03:24.794Z,82.90
2019-01-17T02:07:29.345Z,82.50
2019-01-17T02:11:33.875Z,82.50
2019-01-17T02:15:38.435Z,83.00
2019-01-17T02:19:42.957Z,83.50
2019-01-17T02:23:47.455Z,82.90
2019-01-17T02:27:51.975Z,82.90
2019-01-17T02:31:56.500Z,82.80
2019-01-17T02:36:01.107Z,82.90
2019-01-17T02:40:06.775Z,83.30
2019-01-17T02:44:11.263Z,83.30
2019-01-17T02:48:15.819Z,83.10
2019-01-17T02:52:20.349Z,83.00
2019-01-17T02:56:24.867Z,83.30
2019-01-17T03:00:29.499Z,83.10
2019-01-17T03:04:33.992Z,82.90
2019-01-17T03:08:38.515Z,82.90
2019-01-17T03:12:44.154Z,83.10
2019-01-17T03:16:49.329Z,82.70
2019-01-17T03:20:53.831Z,82.50
2019-01-17T03:24:58.323Z,82.50
2019-01-17T03:29:02.860Z,82.40
2019-01-17T03:33:07.401Z,82.40
2019-01-17T03:37:11.971Z,82.40
2019-01-17T03:41:16.530Z,82.80
2019-01-17T03:45:20.983Z,82.70
2019-01-17T03:49:25.504Z,82.20
2019-01-17T03:53:30.029Z,82.10
2019-01-17T03:57:34.560Z,81.80
2019-01-17T04:01:39.109Z,81.80
2019-01-17T04:05:43.916Z,81.80
2019-01-17T04:09:48.439Z,81.50
2019-01-17T04:13:53.005Z,81.70
2019-01-17T04:17:57.516Z,81.60
2019-01-17T04:22:02.044Z,81.70
2019-01-17T04:26:06.563Z,81.50
2019-01-17T04:30:18.782Z,81.50
2019-01-17T04:34:23.343Z,81.80
2019-01-17T04:38:27.883Z,81.70
2019-01-17T04:42:32.399Z,80.90
2019-01-17T04:46:36.937Z,81.70
2019-01-17T04:50:41.478Z,81.70
2019-01-17T04:54:45.996Z,81.60
2019-01-17T04:58:50.508Z,81.80
2019-01-17T05:02:55.041Z,81.80
2019-01-17T05:06:59.550Z,81.70
2019-01-17T05:11:04.071Z,81.70
2019-01-17T05:15:08.719Z,81.60
2019-01-17T05:19:13.231Z,81.70
2019-01-17T05:23:17.715Z,81.70
2019-01-17T05:27:22.227Z,81.80
2019-01-17T05:31:26.779Z,81.80
2019-01-17T05:35:31.332Z,81.70
2019-01-17T05:39:35.860Z,81.70
2019-01-17T05:43:40.408Z,81.60
2019-01-17T05:47:45.032Z,81.50
2019-01-17T05:51:49.574Z,81.60
2019-01-17T05:55:54.121Z,81.80
2019-01-17T05:59:58.635Z,81.90
2019-01-17T06:04:03.138Z,82.50
2019-01-17T06:08:07.688Z,81.50
2019-01-17T06:12:12.430Z,80.90
2019-01-17T06:16:16.954Z,81.70
2019-01-17T06:20:21.514Z,81.80
2019-01-17T06:24:25.995Z,81.50
2019-01-17T06:28:30.520Z,81.60
2019-01-17T06:32:35.054Z,81.40
2019-01-17T06:36:39.697Z,81.20
2019-01-17T06:40:44.231Z,81.30
2019-01-17T06:44:48.706Z,81.30
2019-01-17T06:48:53.209Z,81.20
2019-01-17T06:52:57.791Z,81.10
2019-01-17T06:57:02.322Z,80.90
2019-01-17T07:01:06.841Z,80.70
2019-01-17T07:05:11.891Z,80.60
2019-01-17T07:09:16.427Z,80.40
2019-01-17T07:13:21.047Z,80.50
2019-01-17T07:17:25.555Z,80.30
2019-01-17T07:21:30.107Z,80.70
2019-01-17T07:25:40.865Z,80.40
2019-01-17T07:29:40.761Z,80.50
2019-01-17T07:33:45.408Z,80.60
2019-01-17T07:37:50.063Z,80.60
2019-01-17T07:41:54.612Z,80.50
2019-01-17T07:45:59.091Z,80.50
2019-01-17T07:50:03.718Z,80.30
2019-01-17T07:54:08.300Z,80.40
2019-01-17T07:58:12.815Z,80.30
2019-01-17T08:02:17.335Z,80.30
2019-01-17T08:06:21.795Z,80.40
2019-01-17T08:10:26.329Z,80.40
2019-01-17T08:14:30.855Z,80.50
2019-01-17T08:18:35.399Z,80.50
2019-01-17T08:22:39.932Z,80.50
2019-01-17T08:26:44.447Z,80.60
2019-01-17T08:30:48.979Z,80.70
2019-01-17T08:34:53.515Z,80.60
2019-01-17T08:38:58.111Z,80.60
2019-01-17T08:43:02.623Z,80.60
2019-01-17T08:47:07.099Z,80.70
2019-01-17T08:51:11.620Z,80.00
2019-01-17T08:55:16.227Z,80.70
2019-01-17T08:59:20.756Z,80.70
2019-01-17T09:03:25.262Z,81.10
2019-01-17T09:07:29.748Z,81.10
2019-01-17T09:11:34.275Z,80.70
2019-01-17T09:15:38.815Z,80.60
2019-01-17T09:19:43.340Z,80.70
2019-01-17T09:23:47.879Z,80.70
2019-01-17T09:27:52.369Z,80.70
2019-01-17T09:31:56.908Z,80.60
2019-01-17T09:36:01.492Z,80.40
2019-01-17T09:40:07.799Z,80.60
2019-01-17T09:44:12.315Z,79.90
2019-01-17T09:48:16.803Z,80.30
2019-01-17T09:52:21.373Z,79.90
2019-01-17T09:56:25.864Z,80.00
2019-01-17T10:00:31.979Z,80.20
2019-01-17T10:04:36.487Z,79.90
2019-01-17T10:08:41.020Z,79.90
2019-01-17T10:12:45.630Z,80.00
2019-01-17T10:16:58.431Z,79.90
2019-01-17T10:21:25.783Z,79.70
2019-01-17T10:25:52.848Z,79.30
2019-01-17T10:30:28.668Z,79.70
2019-01-17T10:35:10.548Z,79.60
2019-01-17T10:39:49.204Z,79.40
2019-01-17T10:44:21.319Z,79.40
2019-01-17T10:48:48.483Z,79.40
2019-01-17T10:53:07.168Z,79.70
2019-01-17T10:57:55.075Z,79.40
2019-01-17T11:02:40.298Z,78.60
2019-01-17T11:07:30.675Z,78.50
2019-01-17T11:12:37.448Z,79.00
2019-01-17T11:17:37.823Z,78.70
2019-01-17T11:22:31.727Z,79.50
2019-01-17T11:27:15.643Z,79.00
2019-01-17T11:32:05.884Z,78.80
2019-01-17T11:36:51.357Z,78.80
2019-01-17T11:41:27.832Z,79.30
2019-01-17T11:45:47.500Z,78.70
2019-01-17T11:50:35.037Z,79.30
2019-01-17T11:55:11.534Z,78.50
2019-01-17T11:59:41.087Z,78.10
2019-01-17T12:04:30.340Z,77.70
2019-01-17T12:08:34.850Z,77.90
2019-01-17T12:12:39.428Z,77.80
2019-01-17T12:16:43.978Z,78.40
2019-01-17T12:20:48.490Z,78.80
2019-01-17T12:24:53.035Z,79.00
2019-01-17T12:28:57.565Z,79.40
2019-01-17T12:33:02.064Z,79.80
2019-01-17T12:37:06.627Z,80.10
2019-01-17T12:41:11.144Z,80.70
2019-01-17T12:45:15.635Z,80.90
2019-01-17T12:49:20.151Z,80.60
2019-01-17T12:53:24.699Z,80.20
2019-01-17T12:57:29.215Z,80.00
2019-01-17T13:01:33.753Z,79.80
2019-01-17T13:05:38.251Z,80.80
2019-01-17T13:09:42.767Z,80.20
2019-01-17T13:13:47.288Z,80.40
2019-01-17T13:17:51.811Z,80.20
2019-01-17T13:21:56.281Z,80.30
2019-01-17T13:26:00.831Z,80.30
2019-01-17T13:30:07.900Z,80.50
2019-01-17T13:34:12.439Z,80.50
2019-01-17T13:38:16.991Z,80.50
2019-01-17T13:42:21.487Z,80.50
2019-01-17T13:46:26.008Z,81.40
2019-01-17T13:50:30.536Z,80.30
2019-01-17T13:54:35.069Z,80.30
2019-01-17T13:58:39.567Z,80.10
2019-01-17T14:02:44.063Z,80.10
2019-01-17T14:06:48.608Z,81.10
2019-01-17T14:10:53.112Z,80.40
2019-01-17T14:14:57.741Z,80.80
2019-01-17T14:19:02.256Z,80.90
2019-01-17T14:23:08.194Z,81.40
2019-01-17T14:27:14.153Z,81.30
2019-01-17T14:31:18.827Z,81.10
2019-01-17T14:35:23.443Z,81.70
2019-01-17T14:39:27.998Z,82.20
2019-01-17T14:43:32.563Z,82.40
2019-01-17T14:47:37.066Z,82.20
2019-01-17T14:51:41.587Z,82.50
2019-01-17T14:55:46.103Z,82.50
2019-01-17T14:59:50.626Z,82.50
2019-01-17T15:03:55.167Z,82.70
2019-01-17T15:07:59.755Z,82.90
2019-01-17T15:12:04.315Z,83.00
2019-01-17T15:16:08.803Z,83.00
2019-01-17T15:20:16.001Z,82.70
2019-01-17T15:24:20.511Z,82.40
2019-01-17T15:28:25.071Z,82.30
2019-01-17T15:32:29.576Z,82.30
2019-01-17T15:36:34.115Z,82.90
2019-01-17T15:40:38.643Z,82.80
2019-01-17T15:44:43.476Z,83.10
2019-01-17T15:48:47.998Z,83.30
2019-01-17T15:52:52.508Z,82.80
2019-01-17T15:56:57.058Z,82.70
2019-01-17T16:01:01.591Z,82.80
2019-01-17T16:05:06.458Z,82.60
2019-01-17T16:09:13.990Z,83.60
2019-01-17T16:13:18.552Z,82.70
2019-01-17T16:17:23.086Z,83.20
2019-01-17T16:21:27.596Z,84.20
2019-01-17T16:25:32.135Z,83.80
2019-01-17T16:29:36.606Z,84.00
2019-01-17T16:33:41.207Z,82.60
2019-01-17T16:37:45.773Z,82.90
2019-01-17T16:41:50.300Z,82.70
2019-01-17T16:45:54.815Z,82.50
2019-01-17T16:49:59.295Z,82.40
2019-01-17T16:54:03.851Z,82.20
2019-01-17T16:58:08.397Z,82.10
2019-01-17T17:02:12.914Z,81.80
2019-01-17T17:06:17.396Z,82.10
2019-01-17T17:10:21.933Z,81.70
2019-01-17T17:14:26.470Z,81.80
2019-01-17T17:18:30.967Z,81.70
2019-01-17T17:22:35.508Z,82.20
2019-01-17T17:26:39.990Z,83.30
2019-01-17T17:30:44.511Z,84.20
2019-01-17T17:34:49.026Z,83.80
2019-01-17T17:38:53.603Z,83.60
2019-01-17T17:42:58.469Z,82.80
2019-01-17T17:47:02.967Z,82.80
2019-01-17T17:51:07.474Z,83.40
2019-01-17T17:55:13.155Z,82.30
2019-01-17T17:59:17.771Z,82.60
2019-01-17T18:03:22.311Z,82.30
2019-01-17T18:07:26.799Z,82.40
2019-01-17T18:11:31.327Z,83.30
2019-01-17T18:16:40.636Z,82.20
2019-01-17T18:20:45.152Z,82.90
2019-01-17T18:24:49.664Z,82.60
2019-01-17T18:28:55.463Z,82.70
2019-01-17T18:32:59.979Z,82.50
2019-01-17T18:37:04.528Z,82.50
2019-01-17T18:41:09.041Z,83.10
2019-01-17T18:45:15.848Z,83.00
2019-01-17T18:49:20.372Z,82.90
2019-01-17T18:53:24.874Z,83.10
2019-01-17T18:57:29.374Z,82.60
2019-01-17T19:01:33.895Z,82.50
2019-01-17T19:05:38.423Z,83.00
2019-01-17T19:09:42.957Z,83.60
2019-01-17T19:13:47.433Z,83.40
2019-01-17T19:17:52.035Z,83.30
2019-01-17T19:21:56.560Z,83.70
2019-01-17T19:26:01.085Z,83.40
2019-01-17T19:30:08.085Z,83.30
2019-01-17T19:34:12.887Z,82.90
2019-01-17T19:38:17.437Z,82.60
2019-01-17T19:42:21.963Z,83.20
2019-01-17T19:46:28.083Z,83.00
2019-01-17T19:50:36.674Z,83.20
2019-01-17T19:54:41.189Z,83.30
2019-01-17T19:58:45.670Z,83.00
2019-01-17T20:02:50.191Z,83.60
2019-01-17T20:06:54.742Z,83.60
2019-01-17T20:10:59.296Z,83.30
2019-01-17T20:15:03.791Z,83.10
2019-01-17T20:19:08.307Z,82.70
2019-01-17T20:23:12.841Z,82.50
2019-01-17T20:27:17.339Z,82.50
2019-01-17T20:31:21.944Z,83.10
2019-01-17T20:35:26.430Z,82.80
2019-01-17T20:39:31.001Z,82.80
2019-01-17T20:49:33.619Z,82.00
2019-01-17T21:55:39.503Z,83.10
2019-01-17T21:59:44.028Z,83.60
2019-01-17T22:04:48.152Z,83.10
2019-01-17T22:08:52.699Z,83.80
2019-01-17T22:12:57.231Z,83.60
2019-01-17T22:17:01.711Z,83.60
2019-01-17T22:21:06.221Z,83.80
2019-01-17T22:25:12.225Z,83.90
2019-01-17T22:29:16.731Z,83.80
2019-01-17T22:33:21.316Z,83.70
2019-01-17T22:38:05.839Z,83.20
2019-01-17T22:42:10.315Z,83.70
2019-01-17T22:55:33.230Z,83.70
2019-01-17T22:59:37.768Z,84.70
2019-01-17T23:03:44.436Z,85.20
2019-01-17T23:07:48.922Z,84.70
2019-01-17T23:11:53.454Z,84.80
2019-01-17T23:15:57.997Z,84.40
2019-01-17T23:20:02.526Z,84.10
2019-01-17T23:24:07.042Z,83.60
2019-01-17T23:28:11.559Z,84.40
2019-01-17T23:32:16.392Z,83.50
2019-01-17T23:36:20.944Z,83.00
2019-01-17T23:40:25.462Z,82.50
2019-01-17T23:44:29.991Z,82.10
2019-01-17T23:48:34.504Z,81.70
2019-01-17T23:52:39.034Z,81.80
2019-01-17T23:56:43.548Z,80.90
